createdAt,value
2023-02-03T00:00:37.931Z,100340.72
2023-02-03T00:02:10.069Z,100343.88
2023-02-03T00:03:42.044Z,100338.13
2023-02-03T00:05:14.094Z,100335.91
2023-02-03T00:06:46.466Z,100329.81
2023-02-03T00:08:18.992Z,100332.25
2023-02-03T00:09:51.024Z,100333.44
2023-02-03T00:11:23.316Z,100332.44
2023-02-03T00:12:56.316Z,100335.59
2023-02-03T00:14:28.269Z,100336.78
2023-02-03T00:16:02.082Z,100334.84
2023-02-03T00:17:34.016Z,100341.91
2023-02-03T00:19:05.934Z,100341.16
2023-02-03T00:20:37.950Z,100341.41
2023-02-03T00:22:09.936Z,100350.44
2023-02-03T00:23:42.206Z,100353.56
2023-02-03T00:25:14.238Z,100339.94
2023-02-03T00:26:46.303Z,100354.25
2023-02-03T00:28:18.466Z,100345.75
2023-02-03T00:29:50.571Z,100344.78
2023-02-03T00:31:24.456Z,100351.06
2023-02-03T00:32:56.621Z,100343.03
2023-02-03T00:34:30.067Z,100336.22
2023-02-03T00:36:05.854Z,100337.69
2023-02-03T00:37:37.907Z,100344.50
2023-02-03T00:39:09.890Z,100348.38
2023-02-03T00:40:41.831Z,100350.28
2023-02-03T00:42:13.839Z,100345.13
2023-02-03T00:43:45.923Z,100354.09
2023-02-03T00:45:19.393Z,100352.75
2023-02-03T00:46:51.341Z,100352.75
2023-02-03T00:48:23.334Z,100358.31
2023-02-03T00:49:55.326Z,100359.97
2023-02-03T00:51:27.313Z,100357.03
2023-02-03T00:52:59.819Z,100351.38
2023-02-03T00:54:33.585Z,100365.13
2023-02-03T00:56:12.503Z,100356.13
2023-02-03T00:57:44.577Z,100347.59
2023-02-03T00:59:16.571Z,100357.06
2023-02-03T01:00:48.605Z,100358.53
2023-02-03T01:02:20.843Z,100360.00
2023-02-03T01:03:54.341Z,100360.66
2023-02-03T01:05:26.297Z,100355.72
2023-02-03T01:06:59.880Z,100364.19
2023-02-03T01:08:32.283Z,100360.53
2023-02-03T01:10:05.076Z,100352.22
2023-02-03T01:11:38.436Z,100350.78
2023-02-03T01:13:10.549Z,100352.66
2023-02-03T01:14:42.476Z,100350.34
2023-02-03T01:16:16.407Z,100355.63
2023-02-03T01:17:48.490Z,100352.19
2023-02-03T01:19:20.423Z,100361.16
2023-02-03T01:20:52.517Z,100365.66
2023-02-03T01:22:24.615Z,100353.69
2023-02-03T01:23:56.577Z,100350.50
2023-02-03T01:25:28.628Z,100357.22
2023-02-03T01:27:00.587Z,100352.06
2023-02-03T01:28:33.378Z,100355.13
2023-02-03T01:30:05.450Z,100367.19
2023-02-03T01:31:40.001Z,100363.50
2023-02-03T01:33:12.499Z,100370.31
2023-02-03T01:34:44.578Z,100360.09
2023-02-03T01:36:17.508Z,100374.38
2023-02-03T01:37:49.650Z,100376.06
2023-02-03T01:39:21.695Z,100379.34
2023-02-03T01:40:53.705Z,100373.19
2023-02-03T01:42:25.606Z,100379.91
2023-02-03T01:43:58.303Z,100381.31
2023-02-03T01:45:30.248Z,100374.22
2023-02-03T01:47:02.958Z,100373.94
2023-02-03T01:48:35.234Z,100380.19
2023-02-03T01:50:09.750Z,100385.25
2023-02-03T01:51:43.278Z,100380.09
2023-02-03T01:53:15.503Z,100380.72
2023-02-03T01:54:48.761Z,100376.59
2023-02-03T01:56:21.471Z,100379.97
2023-02-03T01:58:00.134Z,100382.38
2023-02-03T01:59:33.903Z,100383.03
2023-02-03T02:01:06.198Z,100381.25
2023-02-03T02:02:38.516Z,100384.19
2023-02-03T02:04:10.710Z,100381.53
2023-02-03T02:05:47.377Z,100383.03
2023-02-03T02:07:19.346Z,100379.88
2023-02-03T02:08:52.161Z,100384.31
2023-02-03T02:10:24.812Z,100385.16
2023-02-03T02:11:57.349Z,100389.41
2023-02-03T02:13:30.488Z,100390.22
2023-02-03T02:15:04.164Z,100383.06
2023-02-03T02:16:48.255Z,100383.16
2023-02-03T02:18:26.376Z,100385.91
2023-02-03T02:20:04.495Z,100388.38
2023-02-03T02:21:36.527Z,100381.59
2023-02-03T02:23:17.276Z,100372.28
2023-02-03T02:24:51.744Z,100376.78
2023-02-03T02:26:23.651Z,100369.72
2023-02-03T02:28:08.199Z,100363.34
2023-02-03T02:30:08.516Z,100366.19
2023-02-03T02:31:58.946Z,100366.19
2023-02-03T02:33:39.176Z,100365.75
2023-02-03T02:35:34.711Z,100365.75
2023-02-03T02:37:16.016Z,100359.97
2023-02-03T02:39:08.429Z,100364.09
2023-02-03T02:41:00.721Z,100362.44
2023-02-03T02:42:40.011Z,100354.69
2023-02-03T02:44:37.857Z,100348.16
2023-02-03T02:46:14.964Z,100347.16
2023-02-03T02:47:47.275Z,100347.16
2023-02-03T02:49:19.262Z,100349.84
2023-02-03T02:50:53.851Z,100341.09
2023-02-03T02:52:27.990Z,100344.94
2023-02-03T02:54:01.818Z,100347.34
2023-02-03T02:55:35.262Z,100343.22
2023-02-03T02:57:11.146Z,100345.88
2023-02-03T02:58:44.947Z,100342.47
2023-02-03T03:00:17.057Z,100337.16
2023-02-03T03:01:49.422Z,100336.19
2023-02-03T03:03:22.633Z,100331.59
2023-02-03T03:04:54.978Z,100335.75
2023-02-03T03:06:32.615Z,100341.66
2023-02-03T03:08:05.052Z,100332.34
2023-02-03T03:09:40.545Z,100331.94
2023-02-03T03:11:12.695Z,100323.47
2023-02-03T03:12:50.381Z,100319.16
2023-02-03T03:14:23.709Z,100318.97
2023-02-03T03:15:56.655Z,100308.81
2023-02-03T03:17:31.122Z,100318.84
2023-02-03T03:19:06.332Z,100315.78
2023-02-03T03:20:40.478Z,100318.06
2023-02-03T03:22:14.334Z,100312.78
2023-02-03T03:23:48.205Z,100314.34
2023-02-03T03:25:22.217Z,100324.66
2023-02-03T03:26:54.238Z,100315.50
2023-02-03T03:28:30.601Z,100313.16
2023-02-03T03:30:05.986Z,100331.47
2023-02-03T03:31:38.748Z,100323.06
2023-02-03T03:33:10.894Z,100319.97
2023-02-03T03:34:42.945Z,100321.06
2023-02-03T03:36:14.907Z,100324.75
2023-02-03T03:37:55.680Z,100328.22
2023-02-03T03:39:28.165Z,100330.00
2023-02-03T03:41:08.821Z,100332.28
2023-02-03T03:42:47.214Z,100341.09
2023-02-03T03:44:20.335Z,100329.72
2023-02-03T03:45:56.047Z,100317.59
2023-02-03T03:47:32.940Z,100314.97
2023-02-03T03:49:06.092Z,100321.09
2023-02-03T03:50:41.362Z,100315.03
2023-02-03T03:52:16.122Z,100319.72
2023-02-03T03:53:49.951Z,100322.16
2023-02-03T03:55:22.156Z,100321.50
2023-02-03T03:57:02.503Z,100323.22
2023-02-03T03:58:35.523Z,100325.22
2023-02-03T04:00:09.734Z,100336.91
2023-02-03T04:01:44.837Z,100345.47
2023-02-03T04:03:19.227Z,100342.09
2023-02-03T04:04:52.057Z,100351.38
2023-02-03T04:06:23.989Z,100347.25
2023-02-03T04:07:55.922Z,100351.66
2023-02-03T04:09:28.799Z,100351.16
2023-02-03T04:11:00.759Z,100354.84
2023-02-03T04:12:32.678Z,100353.41
2023-02-03T04:14:04.910Z,100349.06
2023-02-03T04:15:36.956Z,100349.09
2023-02-03T04:17:08.990Z,100337.44
2023-02-03T04:18:40.899Z,100333.81
2023-02-03T04:20:13.300Z,100314.81
2023-02-03T04:21:45.238Z,100316.78
2023-02-03T04:23:18.496Z,100318.97
2023-02-03T04:24:50.415Z,100312.16
2023-02-03T04:26:22.621Z,100315.81
2023-02-03T04:27:55.169Z,100305.34
2023-02-03T04:29:27.116Z,100309.50
2023-02-03T04:31:01.990Z,100306.31
2023-02-03T04:32:35.524Z,100308.06
2023-02-03T04:34:07.500Z,100299.78
2023-02-03T04:35:39.431Z,100298.84
2023-02-03T04:37:11.415Z,100304.44
2023-02-03T04:38:43.419Z,100292.75
2023-02-03T04:40:15.534Z,100304.44
2023-02-03T04:41:47.442Z,100295.91
2023-02-03T04:43:19.394Z,100288.84
2023-02-03T04:44:51.493Z,100287.38
2023-02-03T04:46:23.411Z,100286.16
2023-02-03T04:47:55.406Z,100290.56
2023-02-03T04:49:27.300Z,100294.72
2023-02-03T04:51:03.386Z,100293.03
2023-02-03T04:52:35.293Z,100281.81
2023-02-03T04:54:07.192Z,100285.50
2023-02-03T04:55:39.157Z,100284.28
2023-02-03T04:57:11.127Z,100278.19
2023-02-03T04:58:43.066Z,100282.81
2023-02-03T05:00:15.415Z,100281.81
2023-02-03T05:01:47.420Z,100287.19
2023-02-03T05:03:19.449Z,100282.31
2023-02-03T05:04:51.400Z,100266.22
2023-02-03T05:06:27.380Z,100274.25
2023-02-03T05:07:59.286Z,100278.16
2023-02-03T05:09:31.266Z,100277.91
2023-02-03T05:11:04.691Z,100281.31
2023-02-03T05:12:37.224Z,100271.06
2023-02-03T05:14:09.123Z,100271.06
2023-02-03T05:15:41.073Z,100276.44
2023-02-03T05:17:13.083Z,100278.84
2023-02-03T05:18:45.085Z,100282.28
2023-02-03T05:20:17.359Z,100278.84
2023-02-03T05:21:49.494Z,100275.44
2023-02-03T05:23:21.437Z,100277.41
2023-02-03T05:24:53.451Z,100268.63
2023-02-03T05:26:25.488Z,100271.78
2023-02-03T05:27:57.448Z,100269.84
2023-02-03T05:29:29.419Z,100267.66
2023-02-03T05:31:01.942Z,100262.78
2023-02-03T05:32:33.946Z,100251.34
2023-02-03T05:34:05.976Z,100254.97
2023-02-03T05:35:37.995Z,100254.25
2023-02-03T05:37:09.896Z,100256.69
2023-02-03T05:38:42.608Z,100248.38
2023-02-03T05:40:33.427Z,100252.28
2023-02-03T05:42:05.553Z,100250.81
2023-02-03T05:43:37.929Z,100245.91
2023-02-03T05:45:10.023Z,100246.41
2023-02-03T05:46:42.077Z,100240.31
2023-02-03T05:48:14.085Z,100246.16
2023-02-03T05:49:46.067Z,100246.41
2023-02-03T05:51:17.964Z,100243.94
2023-02-03T05:52:50.168Z,100233.72
2023-02-03T05:54:22.170Z,100231.25
2023-02-03T05:55:54.500Z,100229.06
2023-02-03T05:57:26.693Z,100229.06
2023-02-03T05:58:58.744Z,100230.03
2023-02-03T06:00:30.838Z,100229.31
2023-02-03T06:02:02.957Z,100233.19
2023-02-03T06:03:34.955Z,100230.50
2023-02-03T06:05:07.210Z,100227.38
2023-02-03T06:06:39.194Z,100227.38
2023-02-03T06:08:11.207Z,100230.03
2023-02-03T06:09:43.121Z,100224.41
2023-02-03T06:11:15.010Z,100225.66
2023-02-03T06:12:47.083Z,100222.47
2023-02-03T06:14:19.066Z,100228.53
2023-02-03T06:15:51.015Z,100220.50
2023-02-03T06:17:23.049Z,100217.09
2023-02-03T06:18:55.739Z,100215.88
2023-02-03T06:20:28.057Z,100217.34
2023-02-03T06:22:00.161Z,100211.25
2023-02-03T06:23:32.260Z,100210.53
2023-02-03T06:25:04.674Z,100203.72
2023-02-03T06:26:36.660Z,100202.25
2023-02-03T06:28:08.675Z,100196.88
2023-02-03T06:29:41.279Z,100193.72
2023-02-03T06:31:13.317Z,100191.03
2023-02-03T06:32:45.538Z,100186.41
2023-02-03T06:34:17.514Z,100191.78
2023-02-03T06:35:49.503Z,100183.72
2023-02-03T06:37:22.251Z,100185.19
2023-02-03T06:38:55.333Z,100187.41
2023-02-03T06:40:27.833Z,100188.88
2023-02-03T06:42:00.190Z,100190.09
2023-02-03T06:43:32.343Z,100196.91
2023-02-03T06:45:04.692Z,100191.06
2023-02-03T06:46:36.715Z,100187.91
2023-02-03T06:48:08.788Z,100190.59
2023-02-03T06:49:40.752Z,100197.41
2023-02-03T06:51:12.777Z,100185.22
2023-02-03T06:52:44.700Z,100188.16
2023-02-03T06:54:16.661Z,100188.16
2023-02-03T06:55:48.571Z,100177.44
2023-02-03T06:57:20.664Z,100176.19
2023-02-03T06:58:52.580Z,100183.75
2023-02-03T07:00:24.539Z,100178.63
2023-02-03T07:01:57.257Z,100174.75
2023-02-03T07:03:29.294Z,100175.50
2023-02-03T07:05:01.203Z,100178.16
2023-02-03T07:06:34.266Z,100180.13
2023-02-03T07:08:06.256Z,100179.38
2023-02-03T07:09:38.810Z,100179.84
2023-02-03T07:11:10.743Z,100171.59
2023-02-03T07:12:42.807Z,100179.63
2023-02-03T07:14:14.726Z,100168.91
2023-02-03T07:15:46.783Z,100168.16
2023-02-03T07:17:18.756Z,100168.16
2023-02-03T07:18:50.775Z,100166.72
2023-02-03T07:20:23.118Z,100160.41
2023-02-03T07:21:55.168Z,100166.47
2023-02-03T07:23:27.096Z,100166.47
2023-02-03T07:24:59.123Z,100166.72
2023-02-03T07:26:31.160Z,100168.66
2023-02-03T07:28:03.334Z,100170.63
2023-02-03T07:29:35.343Z,100174.03
2023-02-03T07:31:10.834Z,100170.81
2023-02-03T07:32:46.549Z,100175.00
2023-02-03T07:34:18.556Z,100170.81
2023-02-03T07:35:57.513Z,100177.94
2023-02-03T07:37:29.508Z,100176.94
2023-02-03T07:39:01.660Z,100181.78
2023-02-03T07:40:33.661Z,100180.31
2023-02-03T07:42:05.611Z,100183.22
2023-02-03T07:43:42.144Z,100181.53
2023-02-03T07:45:14.956Z,100189.06
2023-02-03T07:46:46.985Z,100182.22
2023-02-03T07:48:18.997Z,100176.63
2023-02-03T07:49:51.020Z,100185.88
2023-02-03T07:51:22.973Z,100185.88
2023-02-03T07:52:55.680Z,100165.19
2023-02-03T07:54:27.670Z,100177.06
2023-02-03T07:56:03.155Z,100179.75
2023-02-03T07:57:35.559Z,100175.84
2023-02-03T07:59:07.571Z,100162.00
2023-02-03T08:00:39.558Z,100161.25
2023-02-03T08:02:11.623Z,100167.81
2023-02-03T08:03:43.574Z,100161.47
2023-02-03T08:05:15.874Z,100167.81
2023-02-03T08:06:47.992Z,100159.78
2023-02-03T08:08:20.007Z,100152.97
2023-02-03T08:09:52.334Z,100146.41
2023-02-03T08:11:24.301Z,100153.91
2023-02-03T08:12:56.499Z,100142.25
2023-02-03T08:14:28.600Z,100142.50
2023-02-03T08:16:00.725Z,100141.50
2023-02-03T08:17:33.859Z,100143.72
2023-02-03T08:19:05.867Z,100130.06
2023-02-03T08:20:37.880Z,100123.72
2023-02-03T08:22:15.970Z,100118.09
2023-02-03T08:23:47.971Z,100119.81
2023-02-03T08:25:22.492Z,100117.59
2023-02-03T08:26:54.700Z,100107.88
2023-02-03T08:28:26.750Z,100109.56
2023-02-03T08:29:59.252Z,100098.13
2023-02-03T08:31:31.769Z,100101.81
2023-02-03T08:33:03.985Z,100091.34
2023-02-03T08:34:36.254Z,100091.34
2023-02-03T08:36:08.627Z,100094.75
2023-02-03T08:37:40.753Z,100095.25
2023-02-03T08:39:12.897Z,100098.69
2023-02-03T08:40:44.885Z,100098.19
2023-02-03T08:42:17.272Z,100099.16
2023-02-03T08:43:49.502Z,100100.88
2023-02-03T08:45:21.634Z,100103.81
2023-02-03T08:46:54.028Z,100099.19
2023-02-03T08:48:26.112Z,100093.81
2023-02-03T08:49:58.098Z,100086.53
2023-02-03T08:51:30.366Z,100082.16
2023-02-03T08:53:02.300Z,100084.84
2023-02-03T08:54:34.337Z,100079.75
2023-02-03T08:56:10.457Z,100077.81
2023-02-03T08:57:42.501Z,100077.31
2023-02-03T08:59:15.227Z,100074.84
2023-02-03T09:00:49.953Z,100066.09
2023-02-03T09:02:22.010Z,100064.16
2023-02-03T09:03:54.103Z,100061.72
2023-02-03T09:05:26.111Z,100055.66
2023-02-03T09:06:58.150Z,100060.28
2023-02-03T09:08:30.366Z,100057.09
2023-02-03T09:10:02.426Z,100053.47
2023-02-03T09:11:34.475Z,100052.94
2023-02-03T09:13:06.547Z,100057.84
2023-02-03T09:14:38.547Z,100054.66
2023-02-03T09:16:10.764Z,100058.06
2023-02-03T09:17:43.097Z,100047.38
2023-02-03T09:19:15.221Z,100045.19
2023-02-03T09:20:47.742Z,100041.06
2023-02-03T09:22:19.827Z,100040.06
2023-02-03T09:23:52.064Z,100043.00
2023-02-03T09:25:24.082Z,100042.25
2023-02-03T09:26:56.853Z,100038.09
2023-02-03T09:28:29.358Z,100035.16
2023-02-03T09:30:01.435Z,100039.06
2023-02-03T09:31:33.560Z,100024.91
2023-02-03T09:33:05.617Z,100031.50
2023-02-03T09:34:37.976Z,100028.06
2023-02-03T09:36:10.126Z,100028.53
2023-02-03T09:37:42.194Z,100020.00
2023-02-03T09:39:14.312Z,100015.84
2023-02-03T09:40:52.227Z,100014.63
2023-02-03T09:42:28.582Z,100009.53
2023-02-03T09:44:00.818Z,100015.13
2023-02-03T09:45:32.920Z,100009.00
2023-02-03T09:47:16.158Z,100007.53
2023-02-03T09:48:49.560Z,100015.31
2023-02-03T09:50:23.998Z,100002.63
2023-02-03T09:51:59.286Z,99994.09
2023-02-03T09:53:35.816Z,99993.34
2023-02-03T09:55:16.923Z,99987.72
2023-02-03T09:56:52.613Z,99982.09
2023-02-03T09:58:25.027Z,99975.97
2023-02-03T09:59:58.321Z,99969.63
2023-02-03T10:01:38.312Z,99964.00
2023-02-03T10:03:13.622Z,99949.59
2023-02-03T10:05:04.146Z,99947.84
2023-02-03T10:06:45.631Z,99946.63
2023-02-03T10:08:20.601Z,99939.75
2023-02-03T10:10:05.923Z,99944.13
2023-02-03T10:11:55.764Z,99935.25
2023-02-03T10:13:31.682Z,99939.59
2023-02-03T10:15:15.889Z,99936.41
2023-02-03T10:16:47.919Z,99933.22
2023-02-03T10:18:21.576Z,99934.41
2023-02-03T10:19:57.146Z,99925.56
2023-02-03T10:21:36.968Z,99926.03
2023-02-03T10:23:32.325Z,99918.97
2023-02-03T10:25:07.864Z,99922.44
2023-02-03T10:26:40.802Z,99912.22
2023-02-03T10:28:18.309Z,99914.16
2023-02-03T10:30:02.552Z,99910.50
2023-02-03T10:31:36.152Z,99907.38
2023-02-03T10:33:13.171Z,99906.13
2023-02-03T10:34:47.305Z,99899.56
2023-02-03T10:36:19.340Z,99901.00
2023-02-03T10:37:55.058Z,99894.19
2023-02-03T10:39:29.980Z,99889.53
2023-02-03T10:41:02.589Z,99890.25
2023-02-03T10:42:53.293Z,99884.91
2023-02-03T10:44:37.569Z,99875.38
2023-02-03T10:46:09.688Z,99868.06
2023-02-03T10:47:45.279Z,99865.63
2023-02-03T10:49:19.187Z,99863.69
2023-02-03T10:50:52.173Z,99855.56
2023-02-03T10:52:29.013Z,99847.16
2023-02-03T10:54:01.245Z,99849.97
2023-02-03T10:55:33.260Z,99830.00
2023-02-03T10:57:06.773Z,99848.09
2023-02-03T10:58:40.186Z,99839.53
2023-02-03T11:00:20.058Z,99829.22
2023-02-03T11:01:53.528Z,99825.19
2023-02-03T11:03:27.987Z,99819.22
2023-02-03T11:05:20.320Z,99807.69
2023-02-03T11:07:02.873Z,99813.94
2023-02-03T11:08:35.893Z,99804.59
2023-02-03T11:10:27.394Z,99811.22
2023-02-03T11:12:25.588Z,99797.94
2023-02-03T11:14:00.443Z,99803.50
2023-02-03T11:15:32.510Z,99795.19
2023-02-03T11:17:23.050Z,99792.56
2023-02-03T11:19:03.093Z,99781.31
2023-02-03T11:20:36.192Z,99776.53
2023-02-03T11:22:08.221Z,99772.97
2023-02-03T11:23:52.566Z,99787.09
2023-02-03T11:25:27.653Z,99760.84
2023-02-03T11:27:06.934Z,99763.94
2023-02-03T11:28:41.385Z,99754.97
2023-02-03T11:30:20.620Z,99758.25
2023-02-03T11:31:54.753Z,99734.88
2023-02-03T11:33:27.728Z,99754.69
2023-02-03T11:34:59.714Z,99733.88
2023-02-03T11:36:32.787Z,99740.38
2023-02-03T11:38:04.729Z,99731.56
2023-02-03T11:39:36.926Z,99730.50
2023-02-03T11:41:15.559Z,99724.06
2023-02-03T11:42:50.272Z,99720.28
2023-02-03T11:44:23.806Z,99730.56
2023-02-03T11:46:01.660Z,99704.63
2023-02-03T11:47:33.887Z,99708.59
2023-02-03T11:49:41.450Z,99691.31
2023-02-03T11:51:22.616Z,99689.53
2023-02-03T11:53:00.258Z,99691.50
2023-02-03T11:54:55.215Z,99671.66
2023-02-03T11:56:39.445Z,99679.44
2023-02-03T11:58:11.395Z,99689.53
2023-02-03T11:59:51.075Z,99670.09
2023-02-03T12:01:22.991Z,99671.31
2023-02-03T12:02:57.848Z,99666.78
2023-02-03T12:04:41.904Z,99679.19
2023-02-03T12:06:13.889Z,99672.97
2023-02-03T12:07:45.804Z,99656.75
2023-02-03T12:09:20.752Z,99651.13
2023-02-03T12:10:58.962Z,99645.31
2023-02-03T12:12:33.858Z,99631.97
2023-02-03T12:14:41.158Z,99647.38
2023-02-03T12:16:38.391Z,99639.25
2023-02-03T12:18:25.667Z,99641.13
2023-02-03T12:20:00.700Z,99629.56
2023-02-03T12:21:32.667Z,99624.88
2023-02-03T12:23:10.838Z,99614.00
2023-02-03T12:24:45.840Z,99604.06
2023-02-03T12:26:25.738Z,99597.56
2023-02-03T12:28:00.679Z,99609.56
2023-02-03T12:29:37.106Z,99585.31
2023-02-03T12:31:17.758Z,99581.72
2023-02-03T12:32:54.117Z,99574.88
2023-02-03T12:34:34.453Z,99593.75
2023-02-03T12:36:15.229Z,99568.78
2023-02-03T12:37:53.474Z,99586.56
2023-02-03T12:39:34.494Z,99578.59
2023-02-03T12:41:10.584Z,99596.94
2023-02-03T12:42:46.595Z,99568.69
2023-02-03T12:44:24.161Z,99574.94
2023-02-03T12:46:16.601Z,99572.91
2023-02-03T12:47:55.356Z,99572.50
2023-02-03T12:49:31.492Z,99556.44
2023-02-03T12:51:06.391Z,99553.69
2023-02-03T12:52:38.427Z,99541.25
2023-02-03T12:54:19.387Z,99553.81
2023-02-03T12:55:55.337Z,99531.25
2023-02-03T12:57:30.847Z,99539.88
2023-02-03T12:59:11.946Z,99532.44
2023-02-03T13:01:07.079Z,99528.84
2023-02-03T13:03:05.035Z,99519.41
2023-02-03T13:04:41.709Z,99520.25
2023-02-03T13:06:20.653Z,99518.59
2023-02-03T13:07:58.155Z,99501.50
2023-02-03T13:09:41.459Z,99511.88
2023-02-03T13:11:36.909Z,99496.66
2023-02-03T13:13:14.510Z,99494.50
2023-02-03T13:14:52.811Z,99492.84
2023-02-03T13:16:30.050Z,99500.91
2023-02-03T13:18:08.281Z,99498.22
2023-02-03T13:19:45.744Z,99501.63
2023-02-03T13:21:18.153Z,99498.22
2023-02-03T13:22:52.375Z,99494.09
2023-02-03T13:24:25.858Z,99502.88
2023-02-03T13:26:07.018Z,99494.50
2023-02-03T13:27:58.193Z,99508.88
2023-02-03T13:29:30.133Z,99496.66
2023-02-03T13:31:05.251Z,99497.91
2023-02-03T13:32:58.663Z,99490.38
2023-02-03T13:34:49.061Z,99490.03
2023-02-03T13:36:21.178Z,99477.28
2023-02-03T13:37:56.070Z,99482.38
2023-02-03T13:39:46.907Z,99483.81
2023-02-03T13:41:24.965Z,99469.44
2023-02-03T13:42:59.268Z,99467.84
2023-02-03T13:44:31.618Z,99469.63
2023-02-03T13:46:04.287Z,99477.69
2023-02-03T13:47:36.454Z,99453.66
2023-02-03T13:49:08.950Z,99461.75
2023-02-03T13:50:41.293Z,99458.03
2023-02-03T13:52:45.596Z,99449.22
2023-02-03T13:54:23.471Z,99472.19
2023-02-03T13:55:57.221Z,99452.09
2023-02-03T13:57:34.537Z,99462.34
2023-02-03T13:59:20.684Z,99456.47
2023-02-03T14:00:52.725Z,99459.16
2023-02-03T14:02:24.740Z,99452.50
2023-02-03T14:03:57.569Z,99450.34
2023-02-03T14:05:58.759Z,99472.09
2023-02-03T14:07:35.235Z,99472.38
2023-02-03T14:09:38.469Z,99486.56
2023-02-03T14:11:29.335Z,99482.66
2023-02-03T14:13:03.002Z,99491.03
2023-02-03T14:14:34.980Z,99487.94
2023-02-03T14:16:22.309Z,99478.94
2023-02-03T14:17:56.034Z,99474.09
2023-02-03T14:19:27.982Z,99479.25
2023-02-03T14:21:14.625Z,99476.38
2023-02-03T14:22:46.745Z,99473.88
2023-02-03T14:24:19.716Z,99475.13
2023-02-03T14:25:54.427Z,99489.44
2023-02-03T14:27:27.420Z,99485.06
2023-02-03T14:29:00.226Z,99482.38
2023-02-03T14:30:32.367Z,99486.31
2023-02-03T14:32:05.742Z,99474.63
2023-02-03T14:33:54.044Z,99445.38
2023-02-03T14:35:36.597Z,99482.81
2023-02-03T14:37:19.997Z,99494.94
2023-02-03T14:38:52.097Z,99461.75
2023-02-03T14:40:42.664Z,99465.06
2023-02-03T14:42:14.577Z,99452.03
2023-02-03T14:44:00.661Z,99433.75
2023-02-03T14:45:51.654Z,99439.63
2023-02-03T14:47:35.591Z,99441.19
2023-02-03T14:49:13.783Z,99421.84
2023-02-03T14:50:48.613Z,99429.19
2023-02-03T14:52:35.770Z,99423.81
2023-02-03T14:54:26.568Z,99418.22
2023-02-03T14:56:01.524Z,99416.97
2023-02-03T14:57:49.132Z,99413.56
2023-02-03T14:59:22.924Z,99408.72
2023-02-03T15:00:55.563Z,99402.63
2023-02-03T15:02:30.971Z,99390.63
2023-02-03T15:04:11.711Z,99400.66
2023-02-03T15:05:43.659Z,99394.75
2023-02-03T15:07:34.504Z,99404.78
2023-02-03T15:09:23.461Z,99403.34
2023-02-03T15:10:55.613Z,99401.38
2023-02-03T15:12:29.310Z,99396.19
2023-02-03T15:14:17.003Z,99394.34
2023-02-03T15:15:51.939Z,99382.66
2023-02-03T15:17:27.914Z,99388.75
2023-02-03T15:19:02.880Z,99387.31
2023-02-03T15:20:41.427Z,99402.63
2023-02-03T15:22:40.281Z,99399.00
2023-02-03T15:24:13.802Z,99392.91
2023-02-03T15:25:45.934Z,99398.47
2023-02-03T15:27:25.035Z,99386.28
2023-02-03T15:29:00.870Z,99400.25
2023-02-03T15:30:33.054Z,99389.47
2023-02-03T15:32:14.706Z,99393.63
2023-02-03T15:33:47.770Z,99390.41
2023-02-03T15:35:20.559Z,99394.63
2023-02-03T15:36:54.536Z,99398.06
2023-02-03T15:38:29.131Z,99400.25
2023-02-03T15:40:03.903Z,99391.22
2023-02-03T15:41:36.219Z,99391.66
2023-02-03T15:43:12.623Z,99382.66
2023-02-03T15:44:53.983Z,99383.09
2023-02-03T15:46:35.670Z,99379.63
2023-02-03T15:48:16.723Z,99381.94
2023-02-03T15:49:53.177Z,99359.69
2023-02-03T15:51:31.723Z,99365.63
2023-02-03T15:53:05.607Z,99356.50
2023-02-03T15:54:45.831Z,99353.59
2023-02-03T15:56:43.971Z,99343.06
2023-02-03T15:58:21.262Z,99335.31
2023-02-03T15:59:55.135Z,99350.75
2023-02-03T16:01:28.266Z,99345.75
2023-02-03T16:03:00.795Z,99324.00
2023-02-03T16:04:33.307Z,99313.25
2023-02-03T16:06:30.482Z,99333.75
2023-02-03T16:08:21.317Z,99309.53
2023-02-03T16:09:54.163Z,99305.09
2023-02-03T16:11:31.357Z,99317.81
2023-02-03T16:13:33.440Z,99307.47
2023-02-03T16:15:05.581Z,99311.63
2023-02-03T16:16:47.193Z,99301.97
2023-02-03T16:18:27.339Z,99299.28
2023-02-03T16:20:11.505Z,99301.25
2023-02-03T16:21:52.893Z,99310.94
2023-02-03T16:23:27.539Z,99278.88
2023-02-03T16:25:12.974Z,99286.22
2023-02-03T16:26:44.926Z,99279.06
2023-02-03T16:28:35.876Z,99281.75
2023-02-03T16:30:26.636Z,99297.78
2023-02-03T16:32:17.473Z,99284.44
2023-02-03T16:34:09.236Z,99286.72
2023-02-03T16:35:59.848Z,99298.03
2023-02-03T16:37:51.976Z,99274.53
2023-02-03T16:39:45.307Z,99265.94
2023-02-03T16:41:36.297Z,99278.16
2023-02-03T16:43:30.736Z,99281.03
2023-02-03T16:45:21.826Z,99274.69
2023-02-03T16:47:12.766Z,99260.31
2023-02-03T16:49:03.992Z,99269.22
2023-02-03T16:50:57.475Z,99251.84
2023-02-03T16:52:31.856Z,99254.94
2023-02-03T16:54:04.069Z,99265.91
2023-02-03T16:55:35.997Z,99261.09
2023-02-03T16:57:08.110Z,99251.59
2023-02-03T16:58:40.216Z,99248.75
2023-02-03T17:00:13.170Z,99232.94
2023-02-03T17:01:45.178Z,99261.66
2023-02-03T17:03:18.694Z,99266.09
2023-02-03T17:04:50.678Z,99257.00
2023-02-03T17:06:22.833Z,99260.41
2023-02-03T17:07:54.835Z,99261.81
2023-02-03T17:09:26.893Z,99252.88
2023-02-03T17:11:06.502Z,99261.56
2023-02-03T17:12:38.567Z,99246.88
2023-02-03T17:14:10.515Z,99267.69
2023-02-03T17:15:43.994Z,99259.59
2023-02-03T17:17:15.958Z,99244.19
2023-02-03T17:18:48.408Z,99254.22
2023-02-03T17:20:20.726Z,99244.59
2023-02-03T17:21:53.361Z,99247.81
2023-02-03T17:23:25.319Z,99238.66
2023-02-03T17:24:57.328Z,99242.81
2023-02-03T17:26:29.330Z,99232.94
2023-02-03T17:28:02.202Z,99231.69
2023-02-03T17:29:34.201Z,99242.66
2023-02-03T17:31:07.723Z,99234.78
2023-02-03T17:32:39.766Z,99215.22
2023-02-03T17:34:11.755Z,99224.94
2023-02-03T17:35:44.790Z,99213.16
2023-02-03T17:37:16.744Z,99227.84
2023-02-03T17:53:32.707Z,99286.97
2023-02-03T17:55:05.326Z,99304.38
2023-02-03T17:56:37.393Z,99324.16
2023-02-03T17:58:09.391Z,99311.00
2023-02-03T17:59:41.421Z,99326.94
2023-02-03T18:01:18.478Z,99316.00
2023-02-03T18:02:51.336Z,99315.28
2023-02-03T18:04:23.453Z,99319.19
2023-02-03T18:05:55.484Z,99338.59
2023-02-03T18:07:27.457Z,99351.50
2023-02-03T18:09:01.567Z,99355.44
2023-02-03T18:10:33.781Z,99353.88
2023-02-03T18:12:05.854Z,99362.88
2023-02-03T18:13:38.578Z,99363.75
2023-02-03T18:15:10.703Z,99378.50
2023-02-03T18:16:42.859Z,99378.81
2023-02-03T18:18:14.902Z,99381.13
2023-02-03T18:19:54.766Z,99380.78
2023-02-03T18:21:27.743Z,99380.03
2023-02-03T18:22:59.675Z,99403.13
2023-02-03T18:24:32.132Z,99428.41
2023-02-03T18:26:05.318Z,99448.69
2023-02-03T18:27:37.424Z,99474.94
2023-02-03T18:29:11.685Z,99455.31
2023-02-03T18:30:43.812Z,99418.50
2023-02-03T18:32:16.171Z,99403.22
2023-02-03T18:33:48.531Z,99416.69
2023-02-03T18:35:20.555Z,99410.00
2023-02-03T18:36:52.555Z,99421.34
2023-02-03T18:38:27.999Z,99418.97
2023-02-03T18:40:00.775Z,99427.56